Skip Navigation LinksHome page > Weather > Current weather Skip Navigation Links

Current Weather

Ben-Gurion Intl Apt, Tel Aviv, Israel

For information only: do not use for flight planning or navigation.
Latest weather
Observation time Saturday, November 28, 2015 12:20 AM IST
Local time Saturday, November 28, 2015 12:37 AM IST
Flight conditions Visual Meteorological Conditions
Wind direction Southeast (130°)
Wind speed 5 mph
Visibility 6.2 mi.
Sky condition
Ceiling unlimited
Sky clear
Temperature 63°F
Dewpoint 54°F
Altimeter 30.09 in.Hg
Derived measurements
Relative humidity 72%
Density altitude 399 ft.
Ceiling and visibility OK.
No significant changes expected in the next two hours.
METAR LLBG 272220Z 13004KT CAVOK 17/12 Q1019 NOSIG


Location code

InnerDrive.Weather 4.0.5722.1 Release CLR 4.0.30319.34014
Copyright ©2015 Inner Drive Technology. All rights reserved. Portions Copyright ©1986-2015 David Braverman.

Find weather

Site navigation

Skip Navigation Links

Place info

Page info

PayPal - The safer, easier way to pay online!

Return home.

Copyright ©2015 Inner Drive Technology. Purveyors of fine, hand-crafted computer software. Page printed 2015-11-27T22:37:59 UTC.